Time;durP1;ratioP1;P1;durP2;ratioP2;P2;SDS_P1;SDS_P2;PMS_P1;PMS_P2;Temp;Humidity;BMP_temperature;BMP_pressure;BME280_temperature;BME280_humidity;BME280_pressure;Samples;Min_cycle;Max_cycle;Signal;HPM_P1;HPM_P2
2023/06/02 00:01:34;;;;;;;6.88;2.78;;;15.70;98.90;;;15.94;85.54;101335.06;5129782;28;20110;-77
2023/06/02 00:04:14;;;;;;;3.63;2.55;;;15.70;98.90;;;15.97;85.83;101330.78;5134488;28;20051;-78
2023/06/02 00:06:47;;;;;;;3.55;2.38;;;15.70;99.00;;;16.00;85.76;101329.94;5093133;28;20451;-77
2023/06/02 00:09:20;;;;;;;5.07;2.33;;;15.70;99.00;;;16.01;85.96;101327.34;5120866;28;20141;-77
2023/06/02 00:11:53;;;;;;;5.78;2.63;;;15.70;99.10;;;16.01;86.00;101326.47;5121995;28;20078;-78
2023/06/02 00:14:32;;;;;;;6.07;2.60;;;15.70;99.20;;;15.98;85.83;101327.31;5110235;28;20059;-77
2023/06/02 00:17:08;;;;;;;6.65;3.30;;;15.70;99.10;;;15.86;85.60;101320.88;5107678;28;20542;-78
2023/06/02 00:19:43;;;;;;;7.00;3.08;;;15.60;98.90;;;15.74;85.17;101322.38;5116721;28;20051;-77
2023/06/02 00:22:17;;;;;;;3.90;2.38;;;15.50;98.70;;;15.72;85.44;101320.59;5108521;28;20130;-78
2023/06/02 00:24:50;;;;;;;4.47;2.63;;;15.50;98.80;;;15.72;85.05;101317.97;5112736;28;20050;-77
2023/06/02 00:27:23;;;;;;;5.85;2.47;;;15.50;98.70;;;15.73;84.65;101315.34;5117381;28;20075;-78
2023/06/02 00:29:55;;;;;;;5.43;2.58;;;15.50;98.60;;;15.68;83.76;101322.25;5121497;28;20090;-77
2023/06/02 00:32:32;;;;;;;7.38;2.92;;;15.40;98.20;;;15.64;84.01;101316.88;5130707;28;20047;-77
2023/06/02 00:35:09;;;;;;;5.80;2.35;;;15.40;98.30;;;15.60;84.01;101323.78;5092838;29;20488;-77
2023/06/02 00:37:42;;;;;;;6.45;2.38;;;15.40;98.30;;;15.59;84.23;101323.75;5123834;28;20043;-78
2023/06/02 00:40:15;;;;;;;5.22;2.70;;;15.40;98.40;;;15.58;84.06;101330.72;5091789;29;20094;-77
2023/06/02 00:42:48;;;;;;;8.02;2.67;;;15.40;98.30;;;15.60;83.65;101318.53;5107838;28;20546;-78
2023/06/02 00:45:23;;;;;;;4.20;2.33;;;15.40;98.20;;;15.56;83.40;101321.06;5091398;28;20051;-78
2023/06/02 00:47:56;;;;;;;5.18;3.00;;;15.30;98.00;;;15.54;83.56;101328.03;5117622;28;20050;-78
2023/06/02 00:50:32;;;;;;;6.68;2.95;;;15.30;98.10;;;15.50;83.71;101323.53;5096907;28;20043;-78
2023/06/02 00:53:06;;;;;;;6.15;2.35;;;15.30;98.20;;;15.51;83.96;101327.94;5107247;29;20133;-77
2023/06/02 00:55:38;;;;;;;4.80;2.58;;;15.30;98.20;;;15.52;84.04;101333.25;5107745;28;20409;-77
2023/06/02 00:58:13;;;;;;;3.65;2.20;;;15.30;98.60;;;15.53;84.25;101329.75;5106150;28;20051;-77
2023/06/02 01:00:48;;;;;;;;;;;15.30;98.40;;;15.52;83.87;101319.19;5076713;28;20051;-77
2023/06/02 01:03:21;;;;;;;4.38;2.10;;;15.30;98.30;;;15.50;83.56;101323.53;5125340;28;19922;-77
2023/06/02 01:06:00;;;;;;;5.22;2.70;;;15.30;98.20;;;15.50;83.70;101332.31;5092087;29;20051;-78
2023/06/02 01:08:39;;;;;;;3.50;2.40;;;15.20;98.20;;;15.51;83.39;101330.56;5120940;28;20062;-76
2023/06/02 01:11:12;;;;;;;5.80;2.72;;;15.30;98.20;;;15.52;83.01;101329.69;5092448;29;20396;-76
2023/06/02 01:13:45;;;;;;;3.80;2.22;;;15.20;98.00;;;15.52;82.48;101334.97;5114113;28;20190;-78
2023/06/02 01:16:18;;;;;;;4.07;2.15;;;15.30;97.80;;;15.51;82.59;101330.56;5122798;28;20051;-77
2023/06/02 01:18:52;;;;;;;7.18;2.58;;;15.30;97.80;;;15.52;82.44;101329.69;5106819;28;20051;-77
2023/06/02 01:21:34;;;;;;;4.80;2.13;;;15.20;97.70;;;15.51;82.59;101322.69;5091799;28;20054;-77
2023/06/02 01:24:17;;;;;;;4.20;2.25;;;15.30;97.70;;;15.52;82.65;101330.63;5124047;28;20096;-78
2023/06/02 01:26:49;;;;;;;4.55;2.38;;;15.30;97.80;;;15.54;82.66;101323.66;5098683;28;20130;-79
2023/06/02 01:29:22;;;;;;;4.15;2.10;;;15.30;97.80;;;15.56;82.58;101326.31;5082932;28;20079;-79
2023/06/02 01:31:57;;;;;;;3.50;2.17;;;15.30;97.80;;;15.57;82.49;101320.19;5124112;28;20523;-77
2023/06/02 01:34:39;;;;;;;4.53;2.13;;;15.30;97.70;;;15.57;83.07;101322.81;5126130;28;20047;-77
2023/06/02 01:37:15;;;;;;;4.70;2.22;;;15.30;98.00;;;15.57;82.61;101323.69;5117965;28;20078;-78
2023/06/02 01:39:50;;;;;;;4.00;2.40;;;15.30;97.70;;;15.51;81.85;101318.31;5091385;28;20179;-77
2023/06/02 01:42:24;;;;;;;4.30;2.38;;;15.30;97.40;;;15.42;81.77;101318.09;5107336;28;20119;-77
2023/06/02 01:44:57;;;;;;;4.93;2.42;;;15.20;97.30;;;15.40;82.01;101319.81;5075720;29;20051;-77
2023/06/02 01:47:30;;;;;;;4.50;2.67;;;15.20;97.40;;;15.38;81.50;101313.63;5122660;28;20084;-78
2023/06/02 01:50:06;;;;;;;4.97;2.75;;;15.10;97.20;;;15.39;81.10;101315.44;5106750;28;20109;-78
2023/06/02 01:52:38;;;;;;;5.55;3.15;;;15.10;97.10;;;15.36;80.54;101318.84;5099327;28;20525;-78
2023/06/02 01:55:13;;;;;;;5.10;2.28;;;15.10;96.90;;;15.33;80.33;101308.28;5105055;28;20065;-77
2023/06/02 01:57:46;;;;;;;6.40;2.72;;;15.10;96.70;;;15.36;80.34;101315.34;5098404;28;20388;-77
2023/06/02 02:00:22;;;;;;;4.72;2.60;;;15.10;96.70;;;15.33;80.02;101316.16;5106751;28;20106;-78
2023/06/02 02:02:58;;;;;;;3.28;2.45;;;15.10;96.60;;;15.33;80.38;101303.03;5129897;28;20127;-78
2023/06/02 02:05:32;;;;;;;4.05;2.53;;;15.10;96.70;;;15.32;80.22;101309.16;5124306;28;20062;-79
2023/06/02 02:08:07;;;;;;;4.75;2.60;;;15.10;96.60;;;15.29;80.32;101316.94;5123653;28;20051;-77
2023/06/02 02:10:45;;;;;;;5.38;2.70;;;15.10;96.70;;;15.30;79.86;101323.94;5126963;28;20078;-78
2023/06/02 02:13:17;;;;;;;5.75;2.55;;;15.00;96.50;;;15.28;79.95;101315.16;5144611;28;20047;-78
2023/06/02 02:15:49;;;;;;;4.78;2.63;;;15.00;96.50;;;15.29;79.75;101316.03;5113053;28;20045;-78
2023/06/02 02:18:24;;;;;;;4.28;2.63;;;15.00;96.40;;;15.24;79.95;101320.28;5098639;29;20460;-78
2023/06/02 02:20:57;;;;;;;3.90;2.28;;;15.00;96.50;;;15.22;79.78;101312.38;5099152;29;20403;-78
2023/06/02 02:23:30;;;;;;;4.32;2.38;;;15.00;96.40;;;15.21;79.91;101310.63;5107482;28;20058;-78
2023/06/02 02:26:05;;;;;;;5.38;2.35;;;15.00;96.50;;;15.23;79.95;101322.03;5116762;28;20053;-77
2023/06/02 02:28:40;;;;;;;5.32;2.65;;;15.00;96.50;;;15.20;79.83;101320.22;5094832;28;20051;-77
2023/06/02 02:31:13;;;;;;;4.65;2.75;;;15.00;96.50;;;15.14;79.68;101322.72;5075794;29;20063;-77
2023/06/02 02:33:47;;;;;;;6.07;2.83;;;14.90;96.30;;;15.08;79.86;101316.41;5091054;28;20098;-78
2023/06/02 02:36:21;;;;;;;5.38;2.70;;;14.80;96.30;;;15.05;80.14;101332.06;5106536;29;20044;-78
2023/06/02 02:38:55;;;;;;;3.70;2.80;;;14.80;96.40;;;15.06;79.98;101320.72;5106447;28;20051;-77
2023/06/02 02:41:32;;;;;;;3.83;2.63;;;14.80;96.40;;;15.09;80.36;101320.81;5095296;28;20471;-78
2023/06/02 02:44:07;;;;;;;3.33;2.25;;;14.80;96.60;;;15.10;80.67;101330.47;5110326;28;20054;-76
2023/06/02 02:46:41;;;;;;;4.97;2.15;;;14.80;96.70;;;15.12;80.38;101323.50;5118215;28;20081;-77
2023/06/02 02:49:14;;;;;;;5.97;2.28;;;14.80;96.60;;;15.09;80.67;101329.56;5110257;29;20047;-78
2023/06/02 02:51:48;;;;;;;4.28;2.45;;;14.80;96.60;;;15.09;80.04;101333.94;5109976;28;20051;-77
2023/06/02 02:54:22;;;;;;;5.88;2.20;;;14.80;96.40;;;15.08;80.03;101334.81;5134841;28;20050;-78
2023/06/02 02:56:57;;;;;;;4.40;2.40;;;14.80;96.40;;;15.09;80.06;101333.94;5114129;28;20046;-78
2023/06/02 02:59:31;;;;;;;3.80;2.28;;;14.80;96.50;;;15.08;80.29;101342.69;5113202;28;20221;-77
2023/06/02 03:02:05;;;;;;;;;;;14.80;96.50;;;15.03;80.35;101334.69;5127400;28;20043;-79
2023/06/02 03:04:41;;;;;;;4.05;2.42;;;14.80;96.60;;;15.02;80.45;101337.28;5110032;28;19925;-77
2023/06/02 03:07:14;;;;;;;5.28;2.70;;;14.80;96.60;;;14.99;80.43;101332.81;5093816;28;20047;-79
2023/06/02 03:09:48;;;;;;;4.80;2.13;;;14.70;96.50;;;14.93;80.25;101335.28;5135836;28;20611;-77
2023/06/02 03:12:21;;;;;;;6.05;2.50;;;14.70;96.40;;;14.94;80.77;101339.72;5109626;28;20067;-78
2023/06/02 03:14:54;;;;;;;7.30;2.42;;;14.70;96.60;;;14.92;80.59;101339.63;5109803;28;20039;-77
2023/06/02 03:17:27;;;;;;;4.13;2.60;;;14.70;96.60;;;14.91;80.27;101339.59;5093973;28;20051;-77
2023/06/02 03:20:00;;;;;;;5.88;3.08;;;14.70;96.50;;;14.90;79.83;101337.84;5106106;28;20174;-77
2023/06/02 03:22:34;;;;;;;5.50;2.80;;;14.70;96.30;;;14.89;79.63;101342.19;5097169;28;20519;-77
2023/06/02 03:25:08;;;;;;;6.45;3.50;;;14.70;96.30;;;14.91;79.09;101343.13;5117458;28;20118;-77
2023/06/02 03:27:45;;;;;;;8.18;3.90;;;14.70;96.10;;;14.90;79.00;101333.47;5094239;28;20051;-78
2023/06/02 03:30:20;;;;;;;6.72;3.50;;;14.70;96.00;;;14.89;79.17;101338.69;5127165;28;20070;-77
2023/06/02 03:32:54;;;;;;;6.10;3.47;;;14.60;96.00;;;14.88;79.15;101339.53;5109933;28;20051;-78
2023/06/02 03:35:27;;;;;;;7.13;3.90;;;14.60;96.10;;;14.89;79.47;101346.56;5126540;28;20134;-77
2023/06/02 03:37:59;;;;;;;6.53;3.30;;;14.60;96.40;;;14.88;79.38;101340.44;5110027;28;20068;-78
2023/06/02 03:40:37;;;;;;;4.90;3.05;;;14.60;96.10;;;14.88;79.45;101350.94;5112436;28;20114;-78
2023/06/02 03:43:11;;;;;;;6.68;3.28;;;14.60;96.10;;;14.83;79.64;101347.28;5109488;28;20138;-78
2023/06/02 03:45:48;;;;;;;7.90;3.47;;;14.60;96.50;;;14.80;79.93;101341.06;5116880;28;20181;-77
2023/06/02 03:48:22;;;;;;;4.43;3.08;;;14.50;96.20;;;14.79;79.74;101353.28;5108891;28;20471;-77
2023/06/02 03:50:57;;;;;;;5.85;2.83;;;14.60;96.20;;;14.73;79.93;101349.63;5131339;28;20054;-78
2023/06/02 03:53:29;;;;;;;;;;;14.50;96.20;;;14.66;79.80;101354.69;5109286;28;20043;-77
2023/06/02 03:56:04;;;;;;;6.53;3.35;;;14.50;96.10;;;14.58;80.27;101363.22;5100951;29;19923;-78
2023/06/02 03:58:38;;;;;;;6.00;2.78;;;14.40;96.30;;;14.60;80.43;101357.16;5108924;28;20051;-78
2023/06/02 04:01:12;;;;;;;5.63;2.92;;;14.40;96.30;;;14.61;80.14;101360.69;5106394;28;20061;-79
2023/06/02 04:03:48;;;;;;;6.40;3.20;;;14.40;96.30;;;14.56;79.88;101367.56;5095273;28;20126;-77
2023/06/02 04:06:22;;;;;;;5.80;3.08;;;14.50;96.20;;;14.52;80.06;101365.69;5126521;28;20478;-78
2023/06/02 04:08:57;;;;;;;7.78;3.72;;;14.40;96.20;;;14.50;79.78;101367.38;5096862;28;20054;-77
2023/06/02 04:11:30;;;;;;;5.95;3.00;;;14.40;96.10;;;14.50;80.06;101378.75;5124810;28;20047;-79
2023/06/02 04:14:07;;;;;;;6.03;3.53;;;14.40;96.20;;;14.52;80.17;101382.31;5127666;28;20038;-78
2023/06/02 04:16:40;;;;;;;5.53;3.22;;;14.30;96.20;;;14.53;79.63;101372.69;5127142;28;20066;-77
2023/06/02 04:19:14;;;;;;;5.13;2.95;;;14.30;96.00;;;14.51;78.83;101374.41;5077725;29;20471;-77
2023/06/02 04:21:53;;;;;;;4.80;3.03;;;14.30;95.80;;;14.53;79.15;101377.94;5093449;28;20519;-77
2023/06/02 04:24:27;;;;;;;7.47;3.50;;;14.30;95.80;;;14.50;78.94;101384.00;5108347;28;20049;-78
2023/06/02 04:27:00;;;;;;;8.45;3.08;;;14.30;95.80;;;14.48;79.38;101372.59;5108761;28;20134;-79
2023/06/02 04:29:37;;;;;;;4.45;3.03;;;14.30;96.00;;;14.47;79.93;101383.00;5108381;28;20047;-78
2023/06/02 04:32:10;;;;;;;5.70;3.55;;;14.30;96.10;;;14.44;80.50;101373.31;5108391;28;20137;-77
2023/06/02 04:34:43;;;;;;;5.57;3.00;;;14.30;96.20;;;14.37;80.19;101377.47;5124108;28;20120;-78
2023/06/02 04:37:17;;;;;;;9.60;3.67;;;14.20;96.20;;;14.36;80.39;101380.97;5091029;28;20085;-77
2023/06/02 04:39:50;;;;;;;6.40;2.95;;;14.30;96.30;;;14.34;80.31;101382.66;5122217;28;20068;-78
2023/06/02 04:42:24;;;;;;;;;;;14.20;96.20;;;14.32;80.39;101384.31;5140088;28;20046;-77
2023/06/02 04:45:00;;;;;;;4.97;2.70;;;14.20;96.30;;;14.36;80.04;101383.56;5142711;23;19978;-81
2023/06/02 04:47:33;;;;;;;6.40;2.88;;;14.20;96.20;;;14.38;80.56;101395.00;5162684;28;20084;-81
2023/06/02 04:50:09;;;;;;;4.65;2.72;;;14.30;96.30;;;14.39;80.20;101386.28;5145952;28;20086;-81
2023/06/02 04:52:46;;;;;;;5.65;3.15;;;14.20;96.30;;;14.38;80.04;101391.47;5132448;28;20594;-81
2023/06/02 04:55:20;;;;;;;7.10;3.13;;;14.20;96.20;;;14.38;79.90;101388.84;5136833;28;20043;-80
2023/06/02 04:57:56;;;;;;;8.52;3.30;;;14.20;96.10;;;14.39;80.56;101385.38;5165408;28;20049;-82
2023/06/02 05:00:30;;;;;;;10.52;4.28;;;14.20;96.30;;;14.38;79.33;101392.38;5173688;28;20046;-80
2023/06/02 05:03:04;;;;;;;9.00;4.47;;;14.20;96.10;;;14.34;79.05;101393.16;5158422;28;20103;-81
2023/06/02 05:05:36;;;;;;;6.93;3.47;;;14.20;95.80;;;14.33;79.17;101400.94;5139667;28;20049;-81
2023/06/02 05:08:11;;;;;;;9.45;4.13;;;14.20;95.90;;;14.30;78.44;101395.63;5150560;28;20046;-81
2023/06/02 05:10:44;;;;;;;7.43;3.75;;;14.10;95.70;;;14.31;78.71;101397.41;5159062;28;20077;-81
2023/06/02 05:13:18;;;;;;;8.73;4.13;;;14.10;95.70;;;14.34;78.48;101393.16;5160709;28;20061;-82
2023/06/02 05:15:55;;;;;;;6.50;3.58;;;14.10;95.70;;;14.33;78.30;101396.59;5174737;28;20096;-80
2023/06/02 05:18:30;;;;;;;7.55;3.30;;;14.10;95.80;;;14.36;78.63;101399.31;5166643;28;20092;-82
2023/06/02 05:21:04;;;;;;;6.10;3.67;;;14.10;95.70;;;14.31;78.59;101400.91;5184776;28;20567;-81
2023/06/02 05:23:39;;;;;;;7.97;3.60;;;14.20;95.60;;;14.30;78.34;101395.63;5176273;28;20054;-81
2023/06/02 05:26:12;;;;;;;7.25;3.83;;;14.10;95.40;;;14.34;78.03;101394.84;5166295;28;20056;-80
2023/06/02 05:28:45;;;;;;;10.07;3.60;;;14.20;95.40;;;14.32;78.53;101400.06;5150155;28;20196;-81
2023/06/02 05:31:21;;;;;;;6.95;3.28;;;14.10;95.40;;;14.30;78.40;101400.88;5136850;28;20077;-80
2023/06/02 05:33:55;;;;;;;8.10;3.67;;;14.20;95.60;;;14.27;77.86;101399.03;5138729;28;20042;-81
2023/06/02 05:36:28;;;;;;;7.45;3.83;;;14.20;95.30;;;14.26;76.71;101402.50;5163475;28;20133;-81
2023/06/02 05:39:01;;;;;;;7.93;3.38;;;14.10;94.80;;;14.27;75.85;101406.00;5167773;28;20046;-81
2023/06/02 05:41:33;;;;;;;5.18;2.95;;;14.10;94.40;;;14.29;76.11;101399.09;5174119;28;20046;-81
2023/06/02 05:44:06;;;;;;;7.95;3.20;;;14.10;94.50;;;14.33;76.01;101406.19;5151155;28;20074;-81
2023/06/02 05:46:41;;;;;;;8.38;4.60;;;14.20;94.40;;;14.32;75.48;101407.94;5158424;28;20050;-81
2023/06/02 05:49:14;;;;;;;6.45;3.20;;;14.20;94.20;;;14.30;76.23;101411.38;5160750;28;20108;-82
2023/06/02 05:51:46;;;;;;;8.93;3.90;;;14.20;94.50;;;14.23;75.31;101417.28;5163993;28;20046;-82
2023/06/02 05:54:20;;;;;;;7.28;3.83;;;14.10;94.10;;;14.21;75.24;101422.44;5146607;28;20054;-82
2023/06/02 05:56:54;;;;;;;6.88;3.55;;;14.10;94.10;;;14.24;75.46;101422.56;5162632;28;20056;-90
2023/06/02 05:59:28;;;;;;;7.72;3.95;;;14.10;94.10;;;14.30;75.95;101427.97;5147459;28;20049;-84
2023/06/02 06:02:04;;;;;;;8.43;3.42;;;14.10;94.40;;;14.34;75.82;101429.88;5158773;28;20056;-82
2023/06/02 06:04:38;;;;;;;6.25;3.47;;;14.20;94.30;;;14.43;76.15;101423.09;5165878;28;20050;-79
2023/06/02 06:07:11;;;;;;;7.10;3.35;;;14.20;94.40;;;14.47;76.17;101430.22;5150145;28;20418;-80
2023/06/02 06:09:44;;;;;;;6.40;3.40;;;14.30;94.40;;;14.53;76.71;101427.78;5149088;28;20061;-80
2023/06/02 06:12:17;;;;;;;6.15;3.30;;;14.30;94.50;;;14.51;75.72;101429.47;5165381;28;20061;-80
2023/06/02 06:14:49;;;;;;;8.27;3.58;;;14.40;94.20;;;14.51;76.53;101429.47;5131457;28;20773;-78
2023/06/02 06:17:23;;;;;;;6.65;3.80;;;14.30;94.30;;;14.51;78.30;101427.75;5148366;28;20053;-80
2023/06/02 06:19:56;;;;;;;6.63;3.30;;;14.40;95.30;;;14.55;76.91;101426.13;5152981;28;20046;-79
2023/06/02 06:22:28;;;;;;;7.07;3.45;;;14.40;94.60;;;14.58;76.47;101434.94;5171167;28;20046;-78
2023/06/02 06:25:01;;;;;;;5.93;3.35;;;14.40;94.40;;;14.59;75.90;101438.47;5152294;28;20585;-79
2023/06/02 06:27:35;;;;;;;6.88;3.90;;;14.40;94.20;;;14.58;75.16;101439.31;5149406;28;20538;-81
2023/06/02 06:30:08;;;;;;;9.57;3.90;;;14.40;93.90;;;14.53;74.86;101440.91;5170098;28;20054;-80
2023/06/02 06:32:46;;;;;;;8.40;3.97;;;14.30;93.70;;;14.46;75.33;101428.41;5161479;28;20112;-79
2023/06/02 06:35:20;;;;;;;8.95;3.78;;;14.30;93.90;;;14.47;75.27;101430.22;5152925;28;20116;-79
2023/06/02 06:37:53;;;;;;;9.48;4.38;;;14.30;93.90;;;14.44;76.67;101430.13;5161304;28;20053;-77
2023/06/02 06:40:27;;;;;;;10.52;4.03;;;14.30;94.80;;;14.40;75.59;101424.78;5157708;28;20057;-78
2023/06/02 06:42:59;;;;;;;7.60;3.80;;;14.30;93.90;;;14.44;75.76;101431.00;5152850;28;20077;-79
2023/06/02 06:45:37;;;;;;;6.85;3.80;;;14.30;93.90;;;14.43;75.82;101438.84;5167222;28;20536;-78
2023/06/02 06:48:13;;;;;;;8.93;3.67;;;14.30;94.10;;;14.45;76.28;101440.66;5145411;28;20469;-78
2023/06/02 06:50:46;;;;;;;8.88;4.20;;;14.40;94.00;;;14.52;76.86;101439.13;5169440;28;20109;-79
2023/06/02 06:53:19;;;;;;;9.60;4.10;;;14.40;94.30;;;14.57;76.79;101432.28;5186871;28;20409;-81
2023/06/02 06:55:51;;;;;;;7.10;3.80;;;14.50;94.20;;;14.68;76.31;101435.22;5186286;28;20046;-80
2023/06/02 06:58:24;;;;;;;8.70;3.45;;;14.60;94.20;;;14.85;76.88;101440.06;5171547;28;20422;-79
2023/06/02 07:00:56;;;;;;;8.52;3.83;;;14.70;94.40;;;14.99;75.75;101443.06;5167803;28;20053;-81
2023/06/02 07:03:30;;;;;;;10.73;4.53;;;14.80;93.90;;;15.07;75.19;101443.31;5149418;28;20411;-79
2023/06/02 07:06:03;;;;;;;9.55;4.78;;;14.90;93.80;;;15.11;74.54;101438.16;5178923;28;20130;-78
2023/06/02 07:08:37;;;;;;;8.70;4.32;;;14.90;93.40;;;15.18;75.31;101434.84;5148733;28;20224;-79
2023/06/02 07:11:09;;;;;;;8.18;3.90;;;15.00;93.80;;;15.33;75.33;101430.84;5153004;28;20715;-79
2023/06/02 07:13:43;;;;;;;8.57;4.10;;;15.20;93.70;;;15.43;74.37;101436.34;5168730;28;20084;-78
2023/06/02 07:16:15;;;;;;;7.85;3.83;;;15.20;93.30;;;15.55;77.63;101434.91;5171290;28;20046;-75
2023/06/02 07:18:49;;;;;;;12.90;4.82;;;15.40;95.80;;;15.90;78.19;101430.50;5186514;28;20042;-76
2023/06/02 07:21:23;;;;;;;8.27;3.95;;;15.70;95.30;;;16.24;75.79;101432.16;5153555;28;20042;-78
2023/06/02 07:23:57;;;;;;;;;;;16.10;93.80;;;16.48;74.20;101430.03;5161995;28;20046;-80
2023/06/02 07:26:30;;;;;;;7.85;3.83;;;16.30;93.10;;;16.55;71.86;101431.94;5166537;28;19921;-77
2023/06/02 07:29:02;;;;;;;7.90;3.70;;;16.30;91.80;;;16.44;69.56;101433.47;5186072;28;20056;-76
2023/06/02 07:31:35;;;;;;;7.47;3.40;;;16.30;90.50;;;16.24;69.49;101435.69;5185814;28;20046;-77
2023/06/02 07:34:09;;;;;;;7.75;3.28;;;16.10;90.50;;;16.04;69.23;101437.00;5149983;28;20054;-76
2023/06/02 07:36:43;;;;;;;5.93;3.08;;;16.00;90.40;;;16.02;70.39;101439.56;5168180;28;20402;-77
2023/06/02 07:39:16;;;;;;;7.28;3.30;;;15.90;91.10;;;16.14;71.42;101444.22;5185879;28;20045;-77
2023/06/02 07:41:51;;;;;;;9.70;3.50;;;15.90;91.70;;;16.22;71.13;101441.75;5167549;28;20049;-77
2023/06/02 07:44:23;;;;;;;6.22;3.30;;;16.00;91.60;;;16.29;70.60;101444.53;5168239;28;20079;-77
2023/06/02 07:46:56;;;;;;;9.23;3.72;;;16.00;91.40;;;16.34;70.24;101449.91;5185514;28;20108;-76
2023/06/02 07:49:30;;;;;;;7.70;3.63;;;16.10;91.20;;;16.34;69.85;101457.81;5151462;28;20057;-76
2023/06/02 07:52:04;;;;;;;6.80;3.40;;;16.00;90.90;;;16.25;68.93;101449.72;5167921;28;20497;-77
2023/06/02 07:54:36;;;;;;;6.53;3.20;;;16.00;90.50;;;16.18;68.72;101450.44;5150937;28;20046;-76
2023/06/02 07:57:08;;;;;;;5.70;2.97;;;15.90;90.40;;;16.19;68.88;101446.97;5168033;28;20049;-75
2023/06/02 07:59:41;;;;;;;7.53;3.67;;;15.90;90.40;;;16.30;69.30;101450.72;5167593;28;20091;-77
2023/06/02 08:02:14;;;;;;;6.82;3.00;;;15.90;90.70;;;16.40;69.02;101452.69;5168112;28;20444;-78
2023/06/02 08:04:49;;;;;;;5.72;2.88;;;15.90;90.70;;;16.44;68.56;101444.00;5159273;28;20069;-76
2023/06/02 08:07:22;;;;;;;4.97;2.92;;;16.00;90.70;;;16.49;68.20;101442.34;5162418;28;20076;-76
2023/06/02 08:09:55;;;;;;;7.03;3.40;;;16.00;90.40;;;16.42;67.36;101445.69;5182848;28;20048;-77
2023/06/02 08:12:29;;;;;;;9.07;3.30;;;16.00;89.80;;;16.49;67.50;101442.34;5168237;28;20068;-76
2023/06/02 08:15:02;;;;;;;8.50;3.13;;;16.00;90.00;;;17.15;66.44;101445.41;5150670;28;20054;-77
2023/06/02 08:17:34;;;;;;;7.32;3.33;;;16.30;90.00;;;17.86;64.42;101432.56;5184926;28;20048;-77
2023/06/02 08:20:09;;;;;;;7.45;3.10;;;16.70;89.40;;;18.47;63.25;101429.91;5151215;28;20466;-80
2023/06/02 08:22:44;;;;;;;8.43;3.40;;;17.10;88.20;;;19.33;61.13;101423.81;5185169;28;20038;-81
2023/06/02 08:25:17;;;;;;;6.85;2.78;;;17.70;87.10;;;20.15;59.50;101412.97;5166919;28;20410;-78
2023/06/02 08:27:50;;;;;;;8.50;3.63;;;18.30;85.40;;;21.44;57.38;101419.56;5184821;28;20049;-79
2023/06/02 08:30:22;;;;;;;5.93;3.58;;;19.00;84.30;;;22.93;54.52;101420.94;5157994;28;20069;-79
2023/06/02 08:32:54;;;;;;;5.95;2.85;;;20.00;82.30;;;24.30;50.62;101417.06;5164539;28;20413;-79
2023/06/02 08:35:28;;;;;;;8.73;3.80;;;20.90;78.20;;;25.58;48.29;101425.03;5177039;28;20049;-79
2023/06/02 08:38:02;;;;;;;6.95;3.28;;;21.80;75.10;;;26.54;46.20;101430.38;5160544;28;20050;-81
2023/06/02 08:40:37;;;;;;;6.90;3.28;;;22.60;72.20;;;27.61;44.42;101424.31;5167437;28;20104;-84
2023/06/02 08:43:13;;;;;;;9.55;3.33;;;23.60;68.20;;;28.46;43.01;101430.03;5185004;28;20046;-83
2023/06/02 08:45:48;;;;;;;8.25;3.35;;;24.50;65.30;;;29.27;40.98;101427.53;5159688;28;20038;-79
2023/06/02 08:48:20;;;;;;;7.50;2.92;;;25.40;62.20;;;29.77;39.86;101424.97;5148214;28;20409;-79
2023/06/02 08:50:58;;;;;;;5.85;2.72;;;26.00;59.40;;;29.97;39.34;101422.44;5149836;28;20389;-77
2023/06/02 08:53:35;;;;;;;5.35;2.70;;;26.30;58.20;;;30.12;38.35;101433.63;5147098;28;20486;-79
2023/06/02 08:56:09;;;;;;;5.80;2.70;;;26.70;56.50;;;30.12;38.58;101420.16;5149607;28;20042;-78
2023/06/02 08:58:41;;;;;;;6.15;3.10;;;26.70;56.50;;;30.27;38.93;101416.94;5166551;28;20046;-78
2023/06/02 09:01:14;;;;;;;8.00;3.22;;;26.80;56.30;;;30.61;37.43;101419.22;5142971;28;20050;-78
2023/06/02 09:03:48;;;;;;;7.43;3.03;;;27.00;55.10;;;30.94;37.60;101422.41;5150844;28;20136;-78
2023/06/02 09:06:26;;;;;;;9.45;3.10;;;27.20;55.10;;;30.99;37.35;101416.84;5151030;28;20508;-78
2023/06/02 09:09:01;;;;;;;9.15;3.90;;;27.30;54.50;;;30.37;37.73;101412.06;5183893;28;20045;-78
2023/06/02 09:11:34;;;;;;;9.05;3.55;;;27.00;54.30;;;30.33;38.07;101422.09;5183538;28;20096;-78
2023/06/02 09:14:20;;;;;;;6.28;3.13;;;27.00;54.30;;;29.06;39.10;101428.25;5166918;28;20042;-78
2023/06/02 09:16:52;;;;;;;8.68;3.90;;;26.50;54.50;;;28.03;40.51;101422.31;5166840;28;20489;-78
2023/06/02 09:19:25;;;;;;;7.60;3.63;;;25.80;55.00;;;27.50;41.49;101419.22;5144847;28;20399;-78
2023/06/02 09:22:07;;;;;;;7.80;3.85;;;25.30;55.70;;;27.35;41.74;101422.31;5148212;28;20049;-78
2023/06/02 09:24:40;;;;;;;6.82;3.80;;;25.10;56.00;;;27.26;42.01;101418.94;5165630;28;20058;-77
2023/06/02 09:27:15;;;;;;;7.75;3.63;;;25.00;56.20;;;26.50;42.59;101428.69;5183877;28;20042;-79
2023/06/02 09:29:48;;;;;;;7.18;3.55;;;24.70;56.20;;;25.53;44.32;101420.69;5165829;28;20034;-78
2023/06/02 09:32:21;;;;;;;7.53;3.60;;;24.10;57.00;;;24.78;44.89;101428.03;5170035;28;20049;-79
2023/06/02 09:34:53;;;;;;;11.35;3.95;;;23.60;57.60;;;24.42;46.59;101415.19;5146981;28;20046;-78
2023/06/02 09:37:27;;;;;;;6.75;3.22;;;23.30;58.80;;;24.10;47.73;101409.31;5166066;28;20041;-77
2023/06/02 09:40:06;;;;;;;7.32;3.40;;;23.10;59.50;;;23.87;48.42;101419.34;5165169;28;20046;-77
2023/06/02 09:42:45;;;;;;;6.97;3.15;;;23.00;60.20;;;23.21;49.34;101414.56;5150820;28;20124;-78
2023/06/02 09:45:18;;;;;;;6.20;2.83;;;22.50;60.60;;;22.81;50.41;101410.34;5142276;28;20049;-78
2023/06/02 09:47:50;;;;;;;5.38;3.38;;;22.20;61.40;;;22.57;50.83;101408.72;5183427;28;20042;-78
2023/06/02 09:50:35;;;;;;;8.13;3.08;;;21.90;62.10;;;22.11;51.59;101404.47;5143841;28;20445;-77
2023/06/02 09:53:11;;;;;;;8.88;3.33;;;21.60;62.60;;;22.01;51.86;101399.16;5181969;28;20041;-78
2023/06/02 09:55:44;;;;;;;8.32;3.50;;;21.40;62.90;;;21.84;52.25;101400.09;5182702;28;20104;-78
2023/06/02 09:58:16;;;;;;;7.35;3.25;;;21.30;63.30;;;21.74;52.93;101400.09;5158044;28;20107;-78
2023/06/02 10:00:49;;;;;;;7.30;3.38;;;21.20;64.00;;;21.80;53.73;101382.41;5149292;28;20100;-79
2023/06/02 10:03:21;;;;;;;6.97;3.08;;;21.10;64.90;;;21.83;53.25;101392.09;5183176;28;20045;-78
2023/06/02 10:06:07;;;;;;;8.18;3.20;;;21.20;64.60;;;21.62;53.20;101395.69;5165414;28;20042;-77
2023/06/02 10:09:03;;;;;;;6.70;2.83;;;21.00;64.30;;;21.61;54.19;101391.28;5165757;28;20050;-77
2023/06/02 10:11:54;;;;;;;6.75;2.83;;;21.00;65.30;;;21.79;53.95;101395.66;5164712;28;20387;-77
2023/06/02 10:14:57;;;;;;;7.68;3.10;;;21.10;65.40;;;22.06;53.25;101384.09;5159078;28;20062;-78
2023/06/02 10:17:41;;;;;;;4.25;2.17;;;21.30;65.10;;;22.17;52.70;101391.19;5161806;28;20046;-77
2023/06/02 10:20:25;;;;;;;4.15;2.45;;;21.40;65.00;;;22.31;51.69;101395.56;5182657;28;20042;-78
2023/06/02 10:23:17;;;;;;;5.38;3.20;;;21.60;63.70;;;22.22;50.31;101391.13;5183421;28;20037;-77
2023/06/02 10:26:09;;;;;;;6.22;2.35;;;21.50;62.20;;;22.31;51.35;101396.44;5150935;28;20046;-79
2023/06/02 10:28:43;;;;;;;6.50;2.60;;;21.60;63.10;;;22.35;51.50;101387.53;5143288;28;20057;-78
2023/06/02 10:31:17;;;;;;;7.10;2.63;;;21.60;63.10;;;22.40;51.12;101385.75;5187164;28;20052;-77
2023/06/02 10:33:50;;;;;;;4.57;2.50;;;21.70;63.00;;;22.44;50.97;101384.88;5169830;28;20117;-77
2023/06/02 10:36:24;;;;;;;6.55;2.42;;;21.70;62.90;;;22.45;50.99;101383.09;5165712;28;20046;-77
2023/06/02 10:38:56;;;;;;;5.85;2.65;;;21.70;62.80;;;22.51;51.38;101392.81;5164238;28;20509;-77
2023/06/02 10:42:08;;;;;;;7.18;2.60;;;21.70;63.20;;;22.37;50.62;101383.13;5159706;28;20112;-78
2023/06/02 10:44:41;;;;;;;7.85;2.53;;;21.70;62.10;;;22.39;51.90;101377.81;5148690;23;20046;-54